createdAt,value
2017-11-04T00:01:00.914Z,47.47
2017-11-04T00:03:29.833Z,46.07
2017-11-04T00:05:57.953Z,50.47
2017-11-04T00:08:26.098Z,52.23
2017-11-04T00:10:54.249Z,32.13
2017-11-04T00:13:23.237Z,27.60
2017-11-04T00:15:52.152Z,31.23
2017-11-04T00:18:20.312Z,31.73
2017-11-04T00:20:48.418Z,35.07
2017-11-04T00:23:16.593Z,35.97
2017-11-04T00:25:44.718Z,34.13
2017-11-04T00:28:12.836Z,34.10
2017-11-04T00:30:40.986Z,31.63
2017-11-04T00:33:09.112Z,29.50
2017-11-04T00:35:38.030Z,34.90
2017-11-04T00:38:06.147Z,38.77
2017-11-04T00:40:34.292Z,38.43
2017-11-04T00:43:02.434Z,35.77
2017-11-04T00:45:30.569Z,35.20
2017-11-04T00:47:58.689Z,39.20
2017-11-04T00:50:27.615Z,40.57
2017-11-04T00:52:55.743Z,41.50
2017-11-04T00:55:23.893Z,44.70
2017-11-04T00:57:52.785Z,39.73
2017-11-04T01:00:23.129Z,42.37
2017-11-04T01:02:51.265Z,50.33
2017-11-04T01:05:20.168Z,43.87
2017-11-04T01:07:49.057Z,41.83
2017-11-04T01:10:17.968Z,48.67
2017-11-04T01:12:46.137Z,36.60
2017-11-04T01:15:15.029Z,46.60
2017-11-04T01:17:43.900Z,39.90
2017-11-04T01:20:12.813Z,43.80
2017-11-04T01:22:40.949Z,35.10
2017-11-04T01:25:09.082Z,36.23
2017-11-04T01:27:37.226Z,37.37
2017-11-04T01:30:05.363Z,37.70
2017-11-04T01:32:33.478Z,37.03
2017-11-04T01:35:01.637Z,38.37
2017-11-04T01:37:29.803Z,40.90
2017-11-04T01:39:57.944Z,36.33
2017-11-04T01:42:26.086Z,37.83
2017-11-04T01:44:54.212Z,40.13
2017-11-04T01:47:23.104Z,42.40
2017-11-04T01:49:51.257Z,36.77
2017-11-04T01:52:19.406Z,41.27
2017-11-04T01:54:47.550Z,35.27
2017-11-04T01:57:15.725Z,33.33
2017-11-04T01:59:43.981Z,37.83
2017-11-04T02:02:14.015Z,31.43
2017-11-04T02:04:42.895Z,33.40
2017-11-04T02:07:11.032Z,32.03
2017-11-04T02:09:39.934Z,28.33
2017-11-04T02:12:08.076Z,31.17
2017-11-04T02:14:36.248Z,27.03
2017-11-04T02:17:04.386Z,30.87
2017-11-04T02:19:32.524Z,34.77
2017-11-04T02:22:01.412Z,34.50
2017-11-04T02:24:30.326Z,34.53
2017-11-04T02:26:58.460Z,30.80
2017-11-04T02:29:26.588Z,32.53
2017-11-04T02:31:54.709Z,33.13
2017-11-04T02:34:22.845Z,33.07
2017-11-04T02:36:51.757Z,39.37
2017-11-04T02:39:19.887Z,33.83
2017-11-04T02:41:48.008Z,40.63
2017-11-04T02:44:17.083Z,37.37
2017-11-04T02:46:45.208Z,37.53
2017-11-04T02:49:15.741Z,36.97
2017-11-04T02:51:43.895Z,45.20
2017-11-04T02:54:12.796Z,34.27
2017-11-04T02:56:42.134Z,39.97
2017-11-04T02:59:10.271Z,32.20
2017-11-04T03:01:38.413Z,30.50
2017-11-04T03:04:06.603Z,30.43
2017-11-04T03:06:34.739Z,33.93
2017-11-04T03:09:02.915Z,32.17
2017-11-04T03:11:31.197Z,40.87
2017-11-04T03:13:59.331Z,36.83
2017-11-04T03:16:27.473Z,32.80
2017-11-04T03:18:56.361Z,37.87
2017-11-04T03:21:25.272Z,34.93
2017-11-04T03:23:53.386Z,30.87
2017-11-04T03:26:21.522Z,32.03
2017-11-04T03:28:49.656Z,29.20
2017-11-04T03:31:18.572Z,35.33
2017-11-04T03:33:46.687Z,31.50
2017-11-04T03:36:15.773Z,32.60
2017-11-04T03:38:44.688Z,35.17
2017-11-04T03:41:12.817Z,37.57
2017-11-04T03:43:40.959Z,32.60
2017-11-04T03:46:09.852Z,38.30
2017-11-04T03:48:37.989Z,40.03
2017-11-04T03:51:06.120Z,42.93
2017-11-04T03:53:34.268Z,38.77
2017-11-04T03:56:02.388Z,42.03
2017-11-04T03:58:30.523Z,34.93
2017-11-04T04:00:59.424Z,41.70
2017-11-04T04:03:27.552Z,37.50
2017-11-04T04:05:56.440Z,37.80
2017-11-04T04:08:25.428Z,31.73
2017-11-04T04:10:53.564Z,40.00
2017-11-04T04:13:21.708Z,39.13
2017-11-04T04:15:50.656Z,39.77
2017-11-04T04:18:19.588Z,36.07
2017-11-04T04:20:48.492Z,37.87
2017-11-04T04:23:16.622Z,40.27
2017-11-04T04:25:44.788Z,35.70
2017-11-04T04:28:12.918Z,36.60
2017-11-04T04:30:41.060Z,29.67
2017-11-04T04:33:09.176Z,33.77
2017-11-04T04:35:37.311Z,29.63
2017-11-04T04:38:05.430Z,31.03
2017-11-04T04:40:33.589Z,38.03
2017-11-04T04:43:01.692Z,39.27
2017-11-04T04:45:29.817Z,36.80
2017-11-04T04:47:57.977Z,36.03
2017-11-04T04:50:26.106Z,34.37
2017-11-04T04:52:54.260Z,37.60
2017-11-04T04:55:22.380Z,37.77
2017-11-04T04:57:51.290Z,35.83
2017-11-04T05:00:19.434Z,37.53
2017-11-04T05:02:48.328Z,34.23
2017-11-04T05:05:17.237Z,35.63
2017-11-04T05:07:45.406Z,38.10
2017-11-04T05:10:14.332Z,28.97
2017-11-04T05:12:42.741Z,30.50
2017-11-04T05:15:10.907Z,31.43
2017-11-04T05:17:39.033Z,29.10
2017-11-04T05:20:07.210Z,29.17
2017-11-04T05:22:35.485Z,32.93
2017-11-04T05:25:03.616Z,31.90
2017-11-04T05:27:32.517Z,30.90
2017-11-04T05:30:01.432Z,33.37
2017-11-04T05:32:29.556Z,44.83
2017-11-04T05:34:57.702Z,35.17
2017-11-04T05:37:25.836Z,33.97
2017-11-04T05:39:53.977Z,32.80
2017-11-04T05:42:22.163Z,37.57
2017-11-04T05:44:50.285Z,33.33
2017-11-04T05:47:18.415Z,42.30
2017-11-04T05:49:47.352Z,33.10
2017-11-04T05:52:16.246Z,33.10
2017-11-04T05:54:44.379Z,32.63
2017-11-04T05:57:13.275Z,34.73
2017-11-04T05:59:41.417Z,30.90
2017-11-04T06:02:09.554Z,35.70
2017-11-04T06:04:37.695Z,32.87
2017-11-04T06:07:05.829Z,37.30
2017-11-04T06:09:33.991Z,29.33
2017-11-04T06:12:02.127Z,40.20
2017-11-04T06:14:30.257Z,34.47
2017-11-04T06:16:59.190Z,33.63
2017-11-04T06:19:27.319Z,33.20
2017-11-04T06:21:56.234Z,33.03
2017-11-04T06:24:24.473Z,49.37
2017-11-04T06:26:52.617Z,35.37
2017-11-04T06:29:20.745Z,35.87
2017-11-04T06:31:48.883Z,41.90
2017-11-04T06:34:17.021Z,40.60
2017-11-04T06:36:45.139Z,36.10
2017-11-04T06:39:14.044Z,43.10
2017-11-04T06:41:42.995Z,37.43
2017-11-04T06:44:11.902Z,40.63
2017-11-04T06:46:40.040Z,34.20
2017-11-04T06:49:08.171Z,41.33
2017-11-04T06:51:36.313Z,31.17
2017-11-04T06:54:04.452Z,30.70
2017-11-04T06:56:32.584Z,31.70
2017-11-04T06:59:01.493Z,33.93
2017-11-04T07:01:29.651Z,30.27
2017-11-04T07:03:58.590Z,38.50
2017-11-04T07:06:26.721Z,34.63
2017-11-04T07:08:55.821Z,43.03
2017-11-04T07:11:23.948Z,33.70
2017-11-04T07:13:52.092Z,39.40
2017-11-04T07:16:20.381Z,35.47
2017-11-04T07:18:48.516Z,38.43
2017-11-04T07:21:16.649Z,33.60
2017-11-04T07:23:44.818Z,31.07
2017-11-04T07:26:12.993Z,37.17
2017-11-04T07:28:41.920Z,40.90
2017-11-04T07:31:10.890Z,45.73
2017-11-04T07:33:39.033Z,31.40
2017-11-04T07:36:07.166Z,36.17
2017-11-04T07:38:36.061Z,39.93
2017-11-04T07:41:04.231Z,42.40
2017-11-04T07:43:32.382Z,41.90
2017-11-04T07:46:01.303Z,48.80
2017-11-04T07:48:29.430Z,53.80
2017-11-04T07:50:58.332Z,51.60
2017-11-04T07:53:27.238Z,55.00
2017-11-04T07:55:56.189Z,46.67
2017-11-04T07:58:25.971Z,49.53
2017-11-04T08:00:54.141Z,46.90
2017-11-04T08:03:22.275Z,49.93
2017-11-04T08:05:51.185Z,45.27
2017-11-04T08:08:19.331Z,45.47
2017-11-04T08:10:48.283Z,42.90
2017-11-04T08:13:16.437Z,42.23
2017-11-04T08:15:44.615Z,49.40
2017-11-04T08:18:12.777Z,49.97
2017-11-04T08:20:40.934Z,45.27
2017-11-04T08:23:09.073Z,52.40
2017-11-04T08:25:38.030Z,55.80
2017-11-04T08:28:06.218Z,48.57
2017-11-04T08:30:34.340Z,59.53
2017-11-04T08:33:02.598Z,47.27
2017-11-04T08:35:31.481Z,45.00
2017-11-04T08:38:00.383Z,38.87
2017-11-04T08:40:29.285Z,45.53
2017-11-04T08:42:58.209Z,39.03
2017-11-04T08:45:26.348Z,41.20
2017-11-04T08:47:54.489Z,44.00
2017-11-04T08:50:23.377Z,39.93
2017-11-04T08:52:51.545Z,42.07
2017-11-04T08:55:19.692Z,37.07
2017-11-04T08:57:48.648Z,33.33
2017-11-04T09:00:16.789Z,42.93
2017-11-04T09:02:44.928Z,46.40
2017-11-04T09:05:15.194Z,45.37
2017-11-04T09:07:44.106Z,39.67
2017-11-04T09:10:12.240Z,40.07
2017-11-04T09:12:41.713Z,40.07
2017-11-04T09:15:10.179Z,38.33
2017-11-04T09:17:38.310Z,38.33
2017-11-04T09:20:07.214Z,39.77
2017-11-04T09:22:36.214Z,48.63
2017-11-04T09:25:05.104Z,44.40
2017-11-04T09:27:34.012Z,43.27
2017-11-04T09:30:03.339Z,45.27
2017-11-04T09:32:31.475Z,44.30
2017-11-04T09:35:00.563Z,41.60
2017-11-04T09:37:28.719Z,39.40
2017-11-04T09:39:58.245Z,42.60
2017-11-04T09:42:26.461Z,45.43
2017-11-04T09:44:55.192Z,45.13
2017-11-04T09:47:24.116Z,43.17
2017-11-04T09:49:52.248Z,41.23
2017-11-04T09:52:21.170Z,44.60
2017-11-04T09:54:49.304Z,50.00
2017-11-04T09:57:17.452Z,56.37
2017-11-04T09:59:45.626Z,51.20
2017-11-04T10:02:13.837Z,44.53
2017-11-04T10:04:42.469Z,43.13
2017-11-04T10:07:12.141Z,39.87
2017-11-04T10:09:41.085Z,36.37
2017-11-04T10:12:09.249Z,41.80
2017-11-04T10:14:37.409Z,34.33
2017-11-04T10:17:06.335Z,40.73
2017-11-04T10:19:34.487Z,48.90
2017-11-04T10:22:03.429Z,43.50
2017-11-04T10:24:31.552Z,37.20
2017-11-04T10:26:59.797Z,44.83
2017-11-04T10:29:28.713Z,41.30
2017-11-04T10:31:56.857Z,45.03
2017-11-04T10:34:25.013Z,39.73
2017-11-04T10:36:53.916Z,40.70
2017-11-04T10:39:22.089Z,35.90
2017-11-04T10:41:51.016Z,40.87
2017-11-04T10:44:19.171Z,39.73
2017-11-04T10:46:48.236Z,39.37
2017-11-04T10:49:17.149Z,42.50
2017-11-04T10:51:45.339Z,37.20
2017-11-04T10:54:14.160Z,33.87
2017-11-04T10:56:43.026Z,37.80
2017-11-04T10:59:11.161Z,37.80
2017-11-04T11:01:41.153Z,41.90
2017-11-04T11:04:09.275Z,41.13
2017-11-04T11:06:38.353Z,42.63
2017-11-04T11:09:06.506Z,36.63
2017-11-04T11:11:37.281Z,35.37
2017-11-04T11:14:05.415Z,37.93
2017-11-04T11:16:35.346Z,38.50
2017-11-04T11:19:04.254Z,31.97
2017-11-04T11:21:32.406Z,33.43
2017-11-04T11:24:01.368Z,37.67
2017-11-04T11:26:29.535Z,37.23
2017-11-04T11:28:57.673Z,33.30
2017-11-04T11:31:25.869Z,34.43
2017-11-04T11:33:54.001Z,41.40
2017-11-04T11:36:22.136Z,35.90
2017-11-04T11:38:50.323Z,38.23
2017-11-04T11:41:19.237Z,44.83
2017-11-04T11:43:47.402Z,35.77
2017-11-04T11:46:15.537Z,36.90
2017-11-04T11:48:43.708Z,38.03
2017-11-04T11:51:11.846Z,35.63
2017-11-04T11:53:39.987Z,33.33
2017-11-04T11:56:08.910Z,35.13
2017-11-04T11:58:37.796Z,38.73
2017-11-04T12:01:05.953Z,34.80
2017-11-04T12:03:34.086Z,35.00
2017-11-04T12:06:02.257Z,32.53
2017-11-04T12:08:30.417Z,32.17
2017-11-04T12:10:58.569Z,31.10
2017-11-04T12:13:26.714Z,28.07
2017-11-04T12:15:55.638Z,29.20
2017-11-04T12:18:23.795Z,36.60
2017-11-04T12:20:51.937Z,29.67
2017-11-04T12:23:20.086Z,33.53
2017-11-04T12:25:48.234Z,30.87
2017-11-04T12:28:17.281Z,30.37
2017-11-04T12:30:45.411Z,32.40
2017-11-04T12:33:13.578Z,27.20
2017-11-04T12:35:41.772Z,29.57
2017-11-04T12:38:11.093Z,31.30
2017-11-04T12:40:39.243Z,32.43
2017-11-04T12:43:07.396Z,30.60
2017-11-04T12:45:35.541Z,31.27
2017-11-04T12:48:05.418Z,27.93
2017-11-04T12:50:33.544Z,29.73
2017-11-04T12:53:02.549Z,32.20
2017-11-04T12:55:30.740Z,35.60
2017-11-04T12:57:58.905Z,32.00
2017-11-04T13:00:27.053Z,33.23
2017-11-04T13:02:55.985Z,29.80
2017-11-04T13:05:24.152Z,27.93
2017-11-04T13:07:53.067Z,29.63
2017-11-04T13:10:21.212Z,29.23
2017-11-04T13:12:49.341Z,35.50
2017-11-04T13:15:17.489Z,38.70
2017-11-04T13:17:45.916Z,30.33
2017-11-04T13:20:14.057Z,33.30
2017-11-04T13:22:42.985Z,29.10
2017-11-04T13:25:11.337Z,29.60
2017-11-04T13:27:41.236Z,35.77
2017-11-04T13:30:09.395Z,26.70
2017-11-04T13:32:37.522Z,28.50
2017-11-04T13:35:05.689Z,29.80
2017-11-04T13:37:33.839Z,28.73
2017-11-04T13:40:02.020Z,25.37
2017-11-04T13:42:30.930Z,25.33
2017-11-04T13:44:59.854Z,26.27
2017-11-04T13:47:27.994Z,35.50
2017-11-04T13:49:58.234Z,25.50
2017-11-04T13:52:29.564Z,36.03
2017-11-04T13:54:57.765Z,31.73
2017-11-04T13:57:27.569Z,24.10
2017-11-04T13:59:55.712Z,26.93
2017-11-04T14:02:23.857Z,25.30
2017-11-04T14:04:52.753Z,37.00
2017-11-04T14:07:20.901Z,21.97
2017-11-04T14:09:49.052Z,27.13
2017-11-04T14:12:17.207Z,28.13
2017-11-04T14:14:45.580Z,24.70
2017-11-04T14:17:14.513Z,27.50
2017-11-04T14:19:42.667Z,29.13
2017-11-04T14:22:10.845Z,25.03
2017-11-04T14:24:39.179Z,26.40
2017-11-04T14:27:08.091Z,22.07
2017-11-04T14:29:36.259Z,20.10
2017-11-04T14:32:04.410Z,23.70
2017-11-04T14:34:32.557Z,20.80
2017-11-04T14:37:01.674Z,19.37
2017-11-04T14:39:30.594Z,17.67
2017-11-04T14:41:58.755Z,22.53
2017-11-04T14:44:27.673Z,20.90
2017-11-04T14:46:56.644Z,18.53
2017-11-04T14:49:24.790Z,17.17
2017-11-04T14:51:53.712Z,20.37
2017-11-04T14:54:21.862Z,17.43
2017-11-04T14:56:50.802Z,21.00
2017-11-04T14:59:18.998Z,22.23
2017-11-04T15:01:47.117Z,22.17
2017-11-04T15:04:16.039Z,24.93
2017-11-04T15:06:44.193Z,29.13
2017-11-04T15:09:13.149Z,24.60
2017-11-04T15:11:41.286Z,21.60
2017-11-04T15:14:09.427Z,26.67
2017-11-04T15:16:37.604Z,27.13
2017-11-04T15:19:05.767Z,24.90
2017-11-04T15:21:34.687Z,21.00
2017-11-04T15:24:04.508Z,22.80
2017-11-04T15:26:32.650Z,23.90
2017-11-04T15:29:00.804Z,22.20
2017-11-04T15:31:28.948Z,23.67
2017-11-04T15:33:57.090Z,23.13
2017-11-04T15:36:25.237Z,21.67
2017-11-04T15:38:53.399Z,27.17
2017-11-04T15:41:23.490Z,29.00
2017-11-04T15:43:52.330Z,32.23
2017-11-04T15:46:20.461Z,29.43
2017-11-04T15:48:48.664Z,26.57
2017-11-04T15:51:16.970Z,25.40
2017-11-04T15:53:45.132Z,33.53
2017-11-04T15:56:13.280Z,32.23
2017-11-04T15:58:42.194Z,41.80
2017-11-04T16:01:10.358Z,41.73
2017-11-04T16:03:38.515Z,36.57
2017-11-04T16:06:06.712Z,32.80
2017-11-04T16:08:35.772Z,30.80
2017-11-04T16:11:05.029Z,30.30
2017-11-04T16:13:33.160Z,27.17
2017-11-04T16:16:02.080Z,28.70
2017-11-04T16:18:30.260Z,35.33
2017-11-04T16:20:58.394Z,24.97
2017-11-04T16:23:26.573Z,25.93
2017-11-04T16:25:54.716Z,27.80
2017-11-04T16:28:22.896Z,27.70
2017-11-04T16:30:51.038Z,28.30
2017-11-04T16:33:19.192Z,41.10
2017-11-04T16:35:47.332Z,31.10
2017-11-04T16:38:16.250Z,32.13
2017-11-04T16:40:44.408Z,32.27
2017-11-04T16:43:12.525Z,29.47
2017-11-04T16:45:40.690Z,31.40
2017-11-04T16:48:09.593Z,27.93
2017-11-04T16:50:38.499Z,34.60
2017-11-04T16:53:06.639Z,28.00
2017-11-04T16:55:34.779Z,32.13
2017-11-04T16:58:02.927Z,35.27
2017-11-04T17:00:31.936Z,24.03
2017-11-04T17:03:00.186Z,32.00
2017-11-04T17:05:28.377Z,36.13
2017-11-04T17:07:57.304Z,51.37
2017-11-04T17:10:26.225Z,45.70
2017-11-04T17:12:54.499Z,43.13
2017-11-04T17:15:22.657Z,43.07
2017-11-04T17:17:50.817Z,33.93
2017-11-04T17:20:18.973Z,35.20
2017-11-04T17:22:47.109Z,38.47
2017-11-04T17:25:16.036Z,34.77
2017-11-04T17:27:44.178Z,43.17
2017-11-04T17:30:13.106Z,38.40
2017-11-04T17:32:41.244Z,36.07
2017-11-04T17:35:09.400Z,33.27
2017-11-04T17:37:37.554Z,59.97
2017-11-04T17:40:05.729Z,68.53
2017-11-04T17:42:33.864Z,68.17
2017-11-04T17:45:03.222Z,52.07
2017-11-04T17:47:31.478Z,46.23
2017-11-04T17:49:59.612Z,41.20
2017-11-04T17:52:27.782Z,57.10
2017-11-04T17:54:55.921Z,49.07
2017-11-04T17:57:24.824Z,41.30
2017-11-04T17:59:53.759Z,39.37
2017-11-04T18:02:21.906Z,39.17
2017-11-04T18:04:50.066Z,40.60
2017-11-04T18:07:18.974Z,43.13
2017-11-04T18:09:47.159Z,39.87
2017-11-04T18:12:15.325Z,39.50
2017-11-04T18:14:43.498Z,38.80
2017-11-04T18:17:11.645Z,36.43
2017-11-04T18:19:40.586Z,36.10
2017-11-04T18:22:08.728Z,31.47
2017-11-04T18:24:36.908Z,35.67
2017-11-04T18:27:05.035Z,32.03
2017-11-04T18:29:33.213Z,32.33
2017-11-04T18:32:01.379Z,29.83
2017-11-04T18:34:29.521Z,38.20
2017-11-04T18:36:57.688Z,33.70
2017-11-04T18:39:25.916Z,32.37
2017-11-04T18:41:54.073Z,40.90
2017-11-04T18:44:22.216Z,33.90
2017-11-04T18:46:50.385Z,34.40
2017-11-04T18:49:18.550Z,34.70
2017-11-04T18:51:46.701Z,34.57
2017-11-04T18:54:14.844Z,41.60
2017-11-04T18:56:43.742Z,35.40
2017-11-04T18:59:11.957Z,34.63
2017-11-04T19:01:40.141Z,43.63
2017-11-04T19:04:08.299Z,41.50
2017-11-04T19:06:36.451Z,51.57
2017-11-04T19:09:05.496Z,44.80
2017-11-04T19:11:33.644Z,39.43
2017-11-04T19:14:01.802Z,24.57
2017-11-04T19:16:29.959Z,33.53
2017-11-04T19:18:58.103Z,24.43
2017-11-04T19:21:27.764Z,34.23
2017-11-04T19:23:56.004Z,28.87
2017-11-04T19:26:24.162Z,40.03
2017-11-04T19:28:52.331Z,34.73
2017-11-04T19:31:20.500Z,32.10
2017-11-04T19:33:48.650Z,38.10
2017-11-04T19:36:16.809Z,37.03
2017-11-04T19:38:44.956Z,31.43
2017-11-04T19:41:13.882Z,34.17
2017-11-04T19:43:42.106Z,33.23
2017-11-04T19:52:48.214Z,40.50
2017-11-04T19:55:29.160Z,29.83
2017-11-04T19:58:08.095Z,29.63
2017-11-04T20:00:41.510Z,33.13
2017-11-04T20:03:10.813Z,35.50
2017-11-04T20:05:40.014Z,34.20
2017-11-04T20:08:08.957Z,32.50
2017-11-04T20:10:37.136Z,31.63
2017-11-04T20:13:05.323Z,27.07
2017-11-04T20:15:33.474Z,23.10
2017-11-04T20:18:01.620Z,21.43
2017-11-04T20:20:30.714Z,27.13
2017-11-04T20:23:02.486Z,20.13
2017-11-04T20:25:30.819Z,23.50
2017-11-04T20:27:59.611Z,26.80
2017-11-04T20:30:28.545Z,26.37
2017-11-04T20:32:57.541Z,25.93
2017-11-04T20:35:25.765Z,27.60
2017-11-04T20:37:57.274Z,23.63
2017-11-04T20:40:25.499Z,24.53
2017-11-04T20:42:54.432Z,20.07
2017-11-04T20:45:22.660Z,25.30
2017-11-04T20:47:51.598Z,19.40
2017-11-04T20:50:20.472Z,18.77
2017-11-04T20:52:49.723Z,20.97
2017-11-04T20:55:17.876Z,25.80
2017-11-04T20:57:46.057Z,22.17
2017-11-04T21:00:14.232Z,19.13
2017-11-04T21:02:44.176Z,19.13
2017-11-04T21:05:12.344Z,28.13
2017-11-04T21:07:40.481Z,28.33
2017-11-04T21:10:08.661Z,25.40
2017-11-04T21:12:38.416Z,23.20
2017-11-04T21:15:06.610Z,27.87
2017-11-04T21:17:34.797Z,26.30
2017-11-04T21:20:03.736Z,20.40
2017-11-04T21:22:31.946Z,25.87
2017-11-04T21:25:00.104Z,21.20
2017-11-04T21:27:30.174Z,17.20
2017-11-04T21:29:58.319Z,16.87
2017-11-04T21:32:26.462Z,14.27
2017-11-04T21:34:54.623Z,12.30
2017-11-04T21:37:22.778Z,15.27
2017-11-04T21:39:50.948Z,17.40
2017-11-04T21:42:19.176Z,17.00
2017-11-04T21:44:47.322Z,17.77
2017-11-04T21:47:15.476Z,15.90
2017-11-04T21:49:43.630Z,21.10
2017-11-04T21:52:11.776Z,32.60
2017-11-04T21:54:39.931Z,40.50
2017-11-04T21:57:08.106Z,41.70
2017-11-04T21:59:36.352Z,52.20
2017-11-04T22:02:04.583Z,47.97
2017-11-04T22:04:32.736Z,60.57
2017-11-04T22:07:01.257Z,48.47
2017-11-04T22:09:29.387Z,54.57
2017-11-04T22:11:57.589Z,44.47
2017-11-04T22:14:25.738Z,44.23
2017-11-04T22:16:53.944Z,44.43
2017-11-04T22:19:23.003Z,37.87
2017-11-04T22:21:51.759Z,44.23
2017-11-04T22:24:19.909Z,34.33
2017-11-04T22:26:48.101Z,31.87
2017-11-04T22:29:17.047Z,28.03
2017-11-04T22:31:45.215Z,28.87
2017-11-04T22:34:14.167Z,29.00
2017-11-04T22:36:42.318Z,38.17
2017-11-04T22:39:10.464Z,34.20
2017-11-04T22:41:38.612Z,32.00
2017-11-04T22:44:08.006Z,36.00
2017-11-04T22:46:36.137Z,31.70
2017-11-04T22:49:04.301Z,39.73
2017-11-04T22:51:32.451Z,35.93
2017-11-04T22:54:01.144Z,29.17
2017-11-04T22:56:29.289Z,33.07
2017-11-04T22:58:58.214Z,32.67
2017-11-04T23:01:26.383Z,38.67
2017-11-04T23:03:54.540Z,29.00
2017-11-04T23:06:22.691Z,31.20
2017-11-04T23:08:51.620Z,35.67
2017-11-04T23:11:19.776Z,33.73
2017-11-04T23:13:47.920Z,36.83
2017-11-04T23:16:16.820Z,59.00
2017-11-04T23:18:44.998Z,54.10
2017-11-04T23:21:13.899Z,46.10
2017-11-04T23:23:42.045Z,51.90
2017-11-04T23:26:10.973Z,46.77
2017-11-04T23:28:39.079Z,52.70
2017-11-04T23:31:07.172Z,52.57
2017-11-04T23:33:36.040Z,47.80
2017-11-04T23:36:04.183Z,54.87
2017-11-04T23:38:32.315Z,43.63
2017-11-04T23:41:02.532Z,49.93
2017-11-04T23:43:33.585Z,42.83
2017-11-04T23:46:03.156Z,31.10
2017-11-04T23:48:33.181Z,30.87
2017-11-04T23:51:02.071Z,35.93
2017-11-04T23:53:30.977Z,30.80
2017-11-04T23:55:59.799Z,29.33
2017-11-04T23:58:28.521Z,27.77
